To NAV CANADA Home Page Login to a new session Search on AWWS site Disclaimer Vers la page française équivalente Tips FAQ What's new on the site To the Forecasts and Observations / NOTAM section To "File a Flight Plan" website Publications and other links Update of the User's profile FIC Telephone Numbers My Weather Data Folder Route Weather Data Regional Weather Data Local Weather Data To the Forecasts and Observations / NOTAM section
Request Generated 12/04/2022 at 06:10:00 UTC . Weather information available at that time is displayed.


Go to a specific product

Save this request

NOTAM

NOTAM


SIGMET
To the Product Selector

SIGMETS GFACN32

GFACN32 - No SIGMET bulletins in effect



AIRMET
To the Product Selector

AIRMETS GFACN32

GFACN32 - No AIRMET bulletins in effect



PIREP
To the Product Selector

FIR_WINNIPEG (WG)

WG - PIREP not available



METAR/TAF
To the Product Selector

REGINA INTL/SK    

METAR CYQR 040600Z 28017KT 15SM FEW250 M16/M21 A2993 RMK CI1 CI TR SLP191=
METAR CYQR 040500Z 27013KT 15SM FEW250 M15/M20 A2995 RMK CI1 CI TR SLP200=
METAR CYQR 040400Z 25015KT 15SM FEW250 M16/M21 A2996 RMK CI1 CI TR SLP205=

TAF CYQR 040540Z 0406/0506 27012KT P6SM FEW240
FM041200 26012KT P6SM FEW040 SCT100 TEMPO 0412/0416 SCT040
BKN080
FM041600 29020G30KT P6SM SCT040 BKN080
FM042300 30018G28KT P6SM SCT020 BKN030 TEMPO 0423/0506 4SM -SN
BLSN BKN020 OVC030
RMK NXT FCST BY 041200Z

MOOSE JAW/AIR VICE MARSHAL C.M. MCEWEN/SK    

CYMJ - METAR not available

TAF CYMJ 040540Z NIL
RMK NO OBS. NXT FCST BY 041200Z


RADAR PCPN RATE
To the Product Selector
Pacific Canada      Western Canada     

SATELLITE VISIBLE
To the Product Selector
West Canada      

SATELLITE INFRARED
To the Product Selector
West Canada     

GRAPHICAL FA CLOUDS & WEATHER FORECASTS
To the Product Selector
Graphical FA gfacn32      

GRAPHICAL FA ICING, TURBULENCE & FREEZING LEVEL FORECASTS
To the Product Selector
Graphical FA gfacn32      

FDTEXT Low Level FD. Temperatures are not forecast for the 3,000-foot level.
To the Product Selector
STN YQR - REGINA. SASK for use 3000 6000 9000 12000 18000
FDCN01 CWAO FCST BASED ON 040000 DATA VALID 040600 05-09 3041-11 3148-12 3158-15 3266-28
FDCN02 CWAO FCST BASED ON 040000 DATA VALID 041200 09-18 3053-06 3055-09 3068-13 3076-25
FDCN03 CWAO FCST BASED ON 040000 DATA VALID 050000 18-05 3236-15 3159-16 3180-18 2989-26



Your time UTC time
Weather data provided by Environment Canada and NAV CANADA